Terminal Aerodrome Forecast
Issued by NWS Duluth, MN

Home | Current Version | Previous Version | Text Only | Print | Product List | Glossary On
Versions: 1 2 3 4 5 6 7 8 9 10 11 12 13 14 15 16 17 18
899
FTUS43 KDLH 162336
TAFINL
TAF
KINL 162336Z 1700/1724 17005KT P6SM SCT150
     FM170300 17004KT P6SM FEW018 BKN150
     FM170700 17004KT 5SM BR BKN008
     FM171000 18004KT 3SM BR BKN004
     FM171300 19005KT 6SM BR SCT004 BKN008
     FM171600 21008KT P6SM SCT008=

USA.gov is the U.S. government's official web portal to all federal, state and local government web resources and services.